Time;durP1;ratioP1;P1;durP2;ratioP2;P2;SDS_P1;SDS_P2;PMS_P1;PMS_P2;Temp;Humidity;BMP_temperature;BMP_pressure;BME280_temperature;BME280_humidity;BME280_pressure;Samples;Min_cycle;Max_cycle;Signal;HPM_P1;HPM_P2
2022/06/14 00:02:55;;;;;;;;;6.67;5.67;;;;;20.01;74.27;101381.06;6304590;22;45221;-94
2022/06/14 00:05:21;;;;;;;;;5.33;5.33;;;;;19.99;74.16;101393.47;6301672;22;45724;-94
2022/06/14 00:07:46;;;;;;;;;7.67;7.67;;;;;20.01;74.28;101402.38;6303657;22;45226;-95
2022/06/14 00:10:12;;;;;;;;;6.33;6.33;;;;;19.97;74.62;101373.91;6303108;22;45852;-95
2022/06/14 00:12:37;;;;;;;;;5.33;5.00;;;;;19.98;74.36;101383.66;6302620;22;47153;-95
2022/06/14 00:15:04;;;;;;;;;7.00;6.33;;;;;19.90;74.86;101377.31;6302631;22;45550;-94
2022/06/14 00:17:29;;;;;;;;;5.00;5.00;;;;;19.96;74.83;101385.41;6303329;22;45424;-93
2022/06/14 00:19:57;;;;;;;;;6.67;6.67;;;;;19.87;74.94;101367.50;6328653;22;45534;-94
2022/06/14 00:22:22;;;;;;;;;7.33;6.67;;;;;19.85;74.64;101375.47;6302739;22;47865;-93
2022/06/14 00:24:47;;;;;;;;;5.33;4.33;;;;;19.79;74.62;101378.03;6302053;22;45392;-93
2022/06/14 00:27:13;;;;;;;;;5.00;5.00;;;;;19.84;74.73;101380.78;6302508;22;45329;-93
2022/06/14 00:29:38;;;;;;;;;7.33;4.33;;;;;19.81;75.07;101381.63;6306680;22;45397;-94
2022/06/14 00:32:04;;;;;;;;;3.00;3.00;;;;;19.68;74.89;101353.91;6309852;22;46235;-94
2022/06/14 00:34:29;;;;;;;;;7.00;5.00;;;;;19.71;75.32;101369.03;6311703;22;45855;-94
2022/06/14 00:36:56;;;;;;;;;4.00;4.00;;;;;19.65;75.25;101351.19;6309187;22;45294;-94
2022/06/14 00:39:22;;;;;;;;;4.00;3.67;;;;;19.60;75.61;101335.13;6302561;22;45281;-93
2022/06/14 00:41:51;;;;;;;;;4.00;4.00;;;;;19.62;75.62;101341.38;6301898;22;47185;-94
2022/06/14 00:44:21;;;;;;;;;4.00;4.00;;;;;19.70;75.21;101362.81;6306851;22;45491;-94
2022/06/14 00:46:49;;;;;;;;;3.67;3.33;;;;;19.65;75.08;101364.50;6324543;22;45378;-92
2022/06/14 00:49:19;;;;;;;;;4.33;4.33;;;;;19.52;75.73;101336.75;6313738;22;45409;-94
2022/06/14 00:51:53;;;;;;;;;5.00;5.00;;;;;19.50;75.99;101331.41;6314227;22;48149;-94
2022/06/14 00:54:26;;;;;;;;;3.33;3.33;;;;;19.53;76.08;101342.09;6314601;22;45157;-93
2022/06/14 00:57:08;;;;;;;;;4.00;4.00;;;;;19.42;76.09;101325.94;6316624;22;45445;-93
2022/06/14 00:59:40;;;;;;;;;4.00;4.00;;;;;19.49;76.07;101329.59;6316483;22;45407;-94
2022/06/14 01:02:14;;;;;;;;;4.67;4.67;;;;;19.43;76.52;101316.22;6317534;22;46179;-94
2022/06/14 01:04:40;;;;;;;;;3.67;3.67;;;;;19.38;76.09;101313.44;6315466;22;45850;-93
2022/06/14 01:07:24;;;;;;;;;4.33;4.33;;;;;19.30;76.22;101297.31;6311636;22;45335;-93
2022/06/14 01:10:01;;;;;;;;;5.33;5.33;;;;;19.27;76.13;101296.41;6310465;22;45643;-93
2022/06/14 01:12:31;;;;;;;;;4.00;4.00;;;;;19.19;76.22;101294.50;6315132;22;47475;-93
2022/06/14 01:15:14;;;;;;;;;4.00;4.00;;;;;19.30;76.70;101304.44;6309157;22;45403;-93
2022/06/14 01:17:45;;;;;;;;;4.67;4.00;;;;;19.19;76.73;101278.53;6335466;22;45310;-93
2022/06/14 01:20:14;;;;;;;;;4.00;4.00;;;;;19.07;76.81;101271.16;6306703;22;45612;-94
2022/06/14 01:22:41;;;;;;;;;5.33;4.00;;;;;19.11;76.96;101261.50;6307195;22;47059;-92
2022/06/14 01:25:08;;;;;;;;;7.00;4.33;;;;;19.15;77.20;101273.97;6306453;22;46157;-94
2022/06/14 01:27:36;;;;;;;;;5.00;4.00;;;;;19.01;77.20;101252.44;6306918;22;45301;-94
2022/06/14 01:30:06;;;;;;;;;2.00;2.00;;;;;19.07;76.95;101262.31;6306687;22;45616;-94
2022/06/14 01:32:37;;;;;;;;;5.00;3.00;;;;;18.98;76.98;101247.06;6307490;22;46214;-93
2022/06/14 01:35:08;;;;;;;;;4.00;4.00;;;;;18.92;77.21;101247.84;6306923;22;45469;-94
2022/06/14 01:37:35;;;;;;;;;3.33;3.33;;;;;18.93;77.24;101254.97;6307395;22;45277;-93
2022/06/14 01:40:05;;;;;;;;;2.00;2.00;;;;;18.90;77.65;101251.34;6306617;22;45547;-93
2022/06/14 01:43:09;;;;;;;;;4.00;3.00;;;;;18.77;77.53;101227.19;6307743;22;47119;-94
2022/06/14 01:45:58;;;;;;;;;3.00;3.00;;;;;18.85;77.62;101235.31;6308629;22;45835;-93
2022/06/14 01:51:50;;;;;;;;;4.67;4.00;;;;;18.67;77.95;101210.16;6315701;22;45286;-93
2022/06/14 01:51:59;;;;;;;;;3.00;3.00;;;;;18.71;78.12;101211.13;6335196;22;45540;-93
2022/06/14 01:54:42;;;;;;;;;5.33;4.00;;;;;18.64;78.63;101179.09;6306373;22;47106;-94
2022/06/14 01:57:14;;;;;;;;;6.00;4.00;;;;;18.72;78.23;101208.47;6307084;22;45195;-93
2022/06/14 01:59:52;;;;;;;;;4.00;4.00;;;;;18.63;78.47;101190.56;6307099;22;45344;-92
2022/06/14 02:02:26;;;;;;;;;3.33;3.33;;;;;18.58;78.59;101170.13;6307392;22;45451;-93
2022/06/14 02:05:01;;;;;;;;;5.00;3.33;;;;;18.62;78.63;101169.28;6335229;22;45397;-91
2022/06/14 02:07:49;;;;;;;;;4.67;4.67;;;;;18.51;78.68;101162.00;6335824;22;45336;-93
2022/06/14 02:10:18;;;;;;;;;5.00;3.33;;;;;18.53;78.96;101165.59;6335479;22;45255;-94
2022/06/14 02:13:17;;;;;;;;;4.00;4.00;;;;;18.53;78.77;101160.28;6308122;22;45439;-92
2022/06/14 02:16:07;;;;;;;;;5.00;3.00;;;;;18.46;78.85;101142.41;6307823;22;48064;-92
2022/06/14 02:18:37;;;;;;;;;8.00;5.00;;;;;18.49;79.10;101149.56;6308272;22;45388;-93
2022/06/14 02:21:02;;;;;;;;;4.33;3.33;;;;;18.47;79.53;101130.03;6310296;22;45162;-93
2022/06/14 02:23:32;;;;;;;;;5.33;4.33;;;;;18.42;79.61;101127.28;6313620;22;45157;-93
2022/06/14 02:26:07;;;;;;;;;4.00;3.67;;;;;18.42;79.42;101141.50;6318657;22;46962;-94
2022/06/14 02:28:48;;;;;;;;;5.00;5.00;;;;;18.30;79.97;101112.91;6315161;22;45494;-93
2022/06/14 02:31:24;;;;;;;;;4.00;4.00;;;;;18.32;79.88;101104.97;6311636;22;45237;-93
2022/06/14 02:33:57;;;;;;;;;4.67;4.33;;;;;18.20;80.27;101081.69;6344723;22;45166;-93
2022/06/14 02:36:38;;;;;;;;;5.00;5.00;;;;;18.29;80.18;101103.16;6313546;22;46990;-93
2022/06/14 02:39:14;;;;;;;;;6.67;6.00;;;;;18.17;79.90;101097.53;6314803;22;45631;-93
2022/06/14 02:41:56;;;;;;;;;7.00;6.00;;;;;18.15;80.14;101086.91;6316043;22;45356;-94
2022/06/14 02:44:29;;;;;;;;;6.33;5.00;;;;;18.09;80.34;101081.50;6316171;22;45546;-93
2022/06/14 02:47:20;;;;;;;;;3.00;3.00;;;;;18.09;80.42;101070.88;6310188;22;47531;-92
2022/06/14 02:49:55;;;;;;;;;6.00;5.00;;;;;18.14;80.42;101090.41;6303969;22;45391;-93
2022/06/14 02:52:32;;;;;;;;;4.67;4.67;;;;;17.97;80.91;101042.28;6306807;22;45422;-94
2022/06/14 02:55:07;;;;;;;;;5.67;5.00;;;;;17.96;81.05;101044.03;6303596;22;45616;-94
2022/06/14 02:57:54;;;;;;;;;3.33;3.33;;;;;18.01;81.26;101043.25;6304049;22;47116;-94
2022/06/14 03:00:28;;;;;;;;;3.67;3.67;;;;;17.87;80.89;101020.88;6307860;22;45348;-93
2022/06/14 03:03:07;;;;;;;;;2.00;2.00;;;;;17.86;80.64;101019.06;6303677;22;45132;-93
2022/06/14 03:05:35;;;;;;;;;4.00;4.00;;;;;17.94;81.18;101037.81;6301867;22;45390;-93
2022/06/14 03:08:10;;;;;;;;;5.00;4.00;;;;;17.81;81.32;101018.09;6301824;22;47214;-94
2022/06/14 03:11:03;;;;;;;;;5.33;4.33;;;;;17.79;81.14;101017.16;6302241;22;45495;-93
2022/06/14 03:13:32;;;;;;;;;6.67;5.00;;;;;17.76;81.14;101012.69;6303798;22;45438;-93
2022/06/14 03:16:19;;;;;;;;;3.00;3.00;;;;;17.81;81.17;101028.69;6301007;22;45468;-92
2022/06/14 03:19:06;;;;;;;;;3.33;3.33;;;;;17.80;81.73;101015.41;6301848;22;47518;-92
2022/06/14 03:21:51;;;;;;;;;7.00;5.00;;;;;17.72;81.58;100999.31;6301396;22;45330;-92
2022/06/14 03:24:58;;;;;;;;;7.67;4.67;;;;;17.72;82.13;100981.66;6302976;22;45332;-93
2022/06/14 03:27:34;;;;;;;;;3.67;3.67;;;;;17.69;82.06;100983.34;6289253;22;45579;-93
2022/06/14 03:30:10;;;;;;;;;4.00;4.00;;;;;17.61;82.11;100970.81;6304541;22;45320;-92
2022/06/14 03:32:48;;;;;;;;;3.67;3.67;;;;;17.64;82.23;100976.19;6303837;22;45292;-93
2022/06/14 03:35:26;;;;;;;;;4.33;4.00;;;;;17.61;82.19;100976.13;6302357;22;45273;-92
2022/06/14 03:37:57;;;;;;;;;4.00;4.00;;;;;17.69;82.38;100983.34;6303482;22;45455;-94
2022/06/14 03:40:24;;;;;;;;;4.00;4.00;;;;;17.53;82.55;100952.09;6303495;22;47332;-93
2022/06/14 03:42:49;;;;;;;;;3.00;3.00;;;;;17.59;83.15;100953.06;6302213;22;45213;-93
2022/06/14 03:45:21;;;;;;;;;3.33;3.33;;;;;17.48;82.63;100931.63;6302195;22;45388;-93
2022/06/14 03:47:47;;;;;;;;;2.67;2.00;;;;;17.58;83.21;100944.22;6332356;22;45385;-93
2022/06/14 03:50:21;;;;;;;;;4.33;4.33;;;;;17.61;83.00;100948.69;6307136;22;47990;-93
2022/06/14 03:53:13;;;;;;;;;5.00;3.00;;;;;17.60;83.07;100953.09;6308647;22;45381;-93
2022/06/14 03:55:50;;;;;;;;;3.00;3.00;;;;;17.58;82.97;100952.16;6309474;22;45303;-93
2022/06/14 03:58:50;;;;;;;;;3.00;3.00;;;;;17.44;83.17;100921.81;6308709;22;45556;-92
2022/06/14 04:01:21;;;;;;;;;3.67;3.67;;;;;17.51;83.29;100931.69;6307536;22;47316;-93
2022/06/14 04:03:58;;;;;;;;;3.00;3.00;;;;;17.51;82.92;100944.97;6307793;22;45463;-93
2022/06/14 04:06:29;;;;;;;;;2.67;2.67;;;;;17.52;83.19;100938.78;6308220;22;45300;-94
2022/06/14 04:09:37;;;;;;;;;3.00;3.00;;;;;17.44;83.45;100928.03;6311168;22;45523;-94
2022/06/14 04:12:06;;;;;;;;;5.00;4.00;;;;;17.56;83.37;100930.03;6310876;22;47330;-92
2022/06/14 04:15:10;;;;;;;;;3.00;2.00;;;;;17.57;83.89;100915.91;6309580;22;45454;-94
2022/06/14 04:17:54;;;;;;;;;3.67;3.67;;;;;17.51;84.18;100894.53;6310482;22;45312;-94
2022/06/14 04:20:42;;;;;;;;;3.00;3.00;;;;;17.62;84.47;100911.56;6315069;22;45372;-94
2022/06/14 04:23:09;;;;;;;;;3.33;3.00;;;;;17.61;84.16;100906.22;6317561;22;47011;-94
2022/06/14 04:25:44;;;;;;;;;2.00;2.00;;;;;17.65;84.14;100906.28;6317172;22;45376;-93
2022/06/14 04:28:21;;;;;;;;;5.00;3.00;;;;;17.68;83.94;100912.56;6348164;22;45164;-94
2022/06/14 04:30:53;;;;;;;;;3.00;3.00;;;;;17.71;84.35;100901.97;6312716;22;45317;-93
2022/06/14 04:33:31;;;;;;;;;5.00;3.00;;;;;17.73;84.47;100887.84;6307675;22;46418;-94
2022/06/14 04:36:05;;;;;;;;;5.33;3.67;;;;;17.64;84.45;100870.03;6307335;22;45390;-92
2022/06/14 04:38:41;;;;;;;;;4.67;3.33;;;;;17.81;84.31;100887.09;6307815;22;45443;-94
2022/06/14 04:41:19;;;;;;;;;4.00;3.00;;;;;17.73;84.80;100879.03;6307795;22;45368;-92
2022/06/14 04:43:59;;;;;;;;;5.00;5.00;;;;;17.78;84.42;100881.75;6309625;22;47199;-92
2022/06/14 04:46:37;;;;;;;;;3.00;2.67;;;;;17.84;84.19;100890.69;6308668;22;45884;-93
2022/06/14 04:49:12;;;;;;;;;5.67;3.67;;;;;17.90;84.61;100889.03;6308018;22;45270;-93
2022/06/14 04:51:49;;;;;;;;;7.67;4.00;;;;;17.83;84.74;100867.66;6308257;22;45491;-93
2022/06/14 04:54:27;;;;;;;;;4.00;4.00;;;;;17.91;84.43;100880.22;6336077;22;45341;-93
2022/06/14 04:57:03;;;;;;;;;6.33;4.67;;;;;17.91;84.53;100880.22;6360390;22;45264;-92
2022/06/14 04:59:47;;;;;;;;;4.67;4.67;;;;;17.96;84.92;100859.94;6360852;22;45422;-94
2022/06/14 05:02:31;;;;;;;;;5.33;5.33;;;;;18.03;84.76;100869.78;6359507;22;45409;-93
2022/06/14 05:05:07;;;;;;;;;5.00;5.00;;;;;18.15;84.13;100886.78;6360140;22;47235;-93
2022/06/14 05:07:54;;;;;;;;;3.33;3.33;;;;;18.30;84.81;100894.13;6335766;22;45418;-93
2022/06/14 05:10:29;;;;;;;;;4.00;4.00;;;;;18.36;84.62;100901.28;6307382;22;45860;-92
2022/06/14 05:13:01;;;;;;;;;4.33;3.00;;;;;18.38;84.97;100897.78;6307047;22;45309;-93
2022/06/14 05:15:32;;;;;;;;;6.67;4.00;;;;;18.42;84.62;100898.75;6359846;22;48136;-92
2022/06/14 05:18:01;;;;;;;;;6.33;4.33;;;;;18.49;84.78;100897.06;6309639;22;45589;-93
2022/06/14 05:20:27;;;;;;;;;3.33;3.33;;;;;18.62;84.68;100903.47;6307887;22;45659;-94
2022/06/14 05:22:59;;;;;;;;;4.33;4.33;;;;;18.65;84.40;100908.81;6307607;22;45481;-93
2022/06/14 05:25:33;;;;;;;;;4.00;4.00;;;;;18.60;84.20;100891.91;6336586;22;45241;-93
2022/06/14 05:28:07;;;;;;;;;4.00;4.00;;;;;18.64;84.28;100901.72;6307264;22;45809;-92
2022/06/14 05:30:55;;;;;;;;;4.00;2.00;;;;;18.74;84.00;100919.59;6360185;22;45224;-94
2022/06/14 05:33:48;;;;;;;;;4.67;4.67;;;;;18.76;84.31;100936.44;6308405;22;45544;-94
2022/06/14 05:36:22;;;;;;;;;4.33;3.33;;;;;18.80;84.10;100923.19;6307007;22;47194;-92
2022/06/14 05:38:55;;;;;;;;;3.00;3.00;;;;;18.76;84.42;100901.88;6335008;22;45481;-92
2022/06/14 05:41:33;;;;;;;;;4.00;3.00;;;;;18.93;84.57;100917.19;6359986;22;45350;-93
2022/06/14 05:44:36;;;;;;;;;3.33;3.33;;;;;19.08;84.12;100935.09;6303273;22;45179;-91
2022/06/14 05:47:12;;;;;;;;;9.00;3.00;;;;;19.08;83.96;100929.78;6278924;22;45385;-93
2022/06/14 05:49:52;;;;;;;;;3.67;3.67;;;;;19.22;83.76;100957.47;6227020;22;45192;-92
2022/06/14 05:52:36;;;;;;;;;4.67;4.67;;;;;19.34;83.28;100972.69;6228876;22;45448;-93
2022/06/14 05:55:37;;;;;;;;;5.33;3.67;;;;;19.27;83.18;100956.66;6282769;22;44925;-93
2022/06/14 05:58:17;;;;;;;;;4.00;2.67;;;;;19.39;83.26;100977.22;6231503;22;47017;-93
2022/06/14 06:01:02;;;;;;;;;4.00;4.00;;;;;19.61;82.93;101000.53;6227069;22;45886;-93
2022/06/14 06:03:56;;;;;;;;;4.00;4.00;;;;;19.79;83.15;100983.84;6232541;22;45400;-93
2022/06/14 06:06:36;;;;;;;;;4.67;4.67;;;;;19.98;83.18;100992.94;6231684;22;45400;-94
2022/06/14 06:09:43;;;;;;;;;4.00;4.00;;;;;20.12;82.38;101021.53;6231575;22;47391;-93
2022/06/14 06:12:23;;;;;;;;;5.00;5.00;;;;;20.09;82.20;101008.13;6167761;23;45959;-93
2022/06/14 06:14:52;;;;;;;;;6.67;5.00;;;;;20.24;81.99;101027.84;6190059;23;45253;-92
2022/06/14 06:17:32;;;;;;;;;4.33;4.33;;;;;20.28;82.22;101033.22;6164912;23;45269;-95
2022/06/14 06:20:44;;;;;;;;;4.33;4.33;;;;;20.42;81.69;101065.34;6167519;23;46968;-94
2022/06/14 06:23:34;;;;;;;;;5.00;4.33;;;;;20.42;81.34;101069.78;6084087;23;45448;-93
2022/06/14 06:25:59;;;;;;;;;4.00;4.00;;;;;20.48;81.56;101075.19;6102413;23;45234;-94
2022/06/14 06:28:37;;;;;;;;;4.33;4.00;;;;;20.49;81.44;101074.28;6105327;23;45415;-93
2022/06/14 06:31:19;;;;;;;;;5.33;5.33;;;;;20.53;81.15;101077.88;6127498;23;48462;-94
2022/06/14 06:36:23;;;;;;;;;5.00;4.00;;;;;20.74;81.28;101098.53;6320647;22;45370;-93
2022/06/14 06:39:13;;;;;;;;;7.67;5.33;;;;;20.83;80.93;101111.03;6319126;22;45295;-93
2022/06/14 06:41:54;;;;;;;;;4.67;4.67;;;;;20.91;80.79;101132.44;6315608;22;46454;-96
2022/06/14 06:44:34;;;;;;;;;4.00;4.00;;;;;20.98;80.11;101130.69;6291352;22;44889;-96
2022/06/14 06:47:30;;;;;;;;;4.00;4.00;;;;;21.07;80.92;101121.91;6319714;22;45171;-95
2022/06/14 06:50:07;;;;;;;;;3.00;3.00;;;;;21.12;81.01;101124.63;6292023;22;44837;-96
2022/06/14 06:52:58;;;;;;;;;6.00;6.00;;;;;21.21;80.43;101138.03;6321736;22;45252;-95
2022/06/14 06:55:29;;;;;;;;;5.00;5.00;;;;;21.24;80.33;101146.06;6321210;22;45363;-96
2022/06/14 06:58:01;;;;;;;;;6.00;4.67;;;;;21.30;80.33;101150.56;6319558;22;45652;-94
2022/06/14 07:00:30;;;;;;;;;7.00;4.00;;;;;21.39;79.72;101160.41;6291652;22;45246;-96
2022/06/14 07:03:04;;;;;;;;;7.00;3.00;;;;;21.45;80.16;101157.78;6293710;22;46108;-96
2022/06/14 07:05:29;;;;;;;;;2.33;2.33;;;;;21.50;79.89;101173.81;6292779;22;45306;-96
2022/06/14 07:08:16;;;;;;;;;2.67;1.00;;;;;21.52;79.83;101172.94;6293261;22;44825;-96
2022/06/14 07:10:53;;;;;;;;;4.00;4.00;;;;;21.56;79.65;101184.56;6321870;22;45148;-96
2022/06/14 07:13:29;;;;;;;;;4.00;4.00;;;;;21.61;79.59;101189.91;6324825;22;45259;-95
2022/06/14 07:16:16;;;;;;;;;3.67;3.33;;;;;21.63;79.25;101198.81;6322008;22;44581;-96
2022/06/14 07:18:48;;;;;;;;;8.50;5.00;;;;;21.70;79.32;101207.78;6295943;22;45192;-96
2022/06/14 07:21:19;;;;;;;;;5.67;4.67;;;;;21.78;78.78;101219.41;6320404;22;44883;-96
2022/06/14 07:24:02;;;;;;;;;5.33;5.33;;;;;21.86;78.76;101209.66;6320901;22;45266;-95
2022/06/14 07:26:36;;;;;;;;;5.67;4.00;;;;;21.99;78.48;101223.09;6319800;22;45444;-95
2022/06/14 07:29:15;;;;;;;;;5.00;5.00;;;;;22.11;78.30;101233.00;6317753;22;45252;-95
2022/06/14 07:32:06;;;;;;;;;4.33;4.33;;;;;22.27;78.01;101255.31;6324679;22;44657;-95
2022/06/14 07:34:33;;;;;;;;;5.67;4.00;;;;;22.36;78.00;101242.88;6331515;22;45242;-94
2022/06/14 07:37:11;;;;;;;;;5.00;3.67;;;;;22.48;78.48;101240.25;6324583;22;45350;-93
2022/06/14 07:39:55;;;;;;;;;5.00;5.00;;;;;22.60;78.18;101250.09;6306026;22;45547;-94
2022/06/14 07:42:54;;;;;;;;;1.33;1.33;;;;;22.64;77.56;101283.09;6373247;22;45403;-90
2022/06/14 07:45:41;;;;;;;;;5.00;4.00;;;;;22.61;77.73;101264.38;6323694;22;47268;-94
2022/06/14 07:48:39;;;;;;;;;4.67;3.33;;;;;22.68;78.04;101255.47;6330044;22;45244;-94
2022/06/14 07:51:16;;;;;;;;;7.00;5.00;;;;;22.70;77.42;101272.47;6353119;22;44821;-95
2022/06/14 07:53:41;;;;;;;;;3.67;3.67;;;;;22.84;77.25;101293.00;6354291;22;45393;-95
2022/06/14 07:56:17;;;;;;;;;4.33;4.00;;;;;22.88;77.07;101292.13;6323590;22;47228;-96
2022/06/14 08:04:15;;;;;;;;;2.67;2.67;;;;;22.92;76.38;101303.72;6325169;22;44993;-96
2022/06/14 08:07:07;;;;;;;;;4.00;4.00;;;;;23.10;76.08;101332.31;6250170;22;46765;-96
2022/06/14 08:09:51;;;;;;;;;4.00;4.00;;;;;23.20;75.16;101338.59;6324295;22;45543;-96
2022/06/14 08:12:23;;;;;;;;;4.33;4.33;;;;;23.22;75.32;101324.31;6322366;22;45323;-96
2022/06/14 08:15:01;;;;;;;;;5.00;5.00;;;;;23.30;75.35;101328.78;6323928;22;45285;-95
2022/06/14 08:18:05;;;;;;;;;7.00;5.67;;;;;23.39;74.81;101349.34;6293068;22;47066;-96
2022/06/14 08:20:46;;;;;;;;;4.67;4.67;;;;;23.58;74.85;101360.13;6291937;22;45313;-96
2022/06/14 08:23:29;;;;;;;;;4.00;4.00;;;;;23.68;74.94;101347.63;6305673;22;45182;-95
2022/06/14 08:26:04;;;;;;;;;4.67;4.00;;;;;23.72;74.58;101349.38;6324031;22;46487;-94
2022/06/14 08:28:41;;;;;;;;;3.33;3.33;;;;;23.76;74.49;101357.41;6325864;22;46797;-95
2022/06/14 08:31:22;;;;;;;;;4.67;3.33;;;;;23.87;73.59;101370.81;6324368;22;45141;-95
2022/06/14 08:33:56;;;;;;;;;4.67;2.67;;;;;24.06;74.21;101370.81;6345759;22;45201;-89
2022/06/14 08:36:30;;;;;;;;;5.00;3.00;;;;;24.20;74.20;101368.09;6287538;22;45254;-93
2022/06/14 08:39:05;;;;;;;;;3.00;3.00;;;;;24.36;74.07;101376.13;6310176;22;47780;-90
2022/06/14 08:41:33;;;;;;;;;4.00;3.00;;;;;24.56;73.71;101393.97;6311977;22;46281;-92
2022/06/14 08:44:06;;;;;;;;;4.00;3.67;;;;;24.70;73.19;101403.78;6315849;22;45300;-92
2022/06/14 08:46:58;;;;;;;;;5.67;3.00;;;;;24.78;72.03;101434.16;6341734;22;45682;-92
2022/06/14 08:49:39;;;;;;;;;5.00;5.00;;;;;24.86;71.76;101456.53;6314410;22;46070;-92
2022/06/14 08:52:49;;;;;;;;;3.00;3.00;;;;;24.82;71.13;101462.78;6321731;22;45294;-95
2022/06/14 08:55:36;;;;;;;;;6.00;3.00;;;;;24.82;71.27;101465.47;6321369;22;45236;-95
2022/06/14 08:58:29;;;;;;;;;4.00;4.00;;;;;24.87;71.30;101462.75;6319210;22;45152;-92
2022/06/14 09:01:40;;;;;;;;;6.00;4.67;;;;;24.82;71.08;101460.09;6342133;22;45343;-88
2022/06/14 09:04:08;;;;;;;;;4.00;4.00;;;;;24.95;70.17;101481.53;6294864;22;45269;-93
2022/06/14 09:07:10;;;;;;;;;3.67;3.67;;;;;25.00;70.45;101486.03;6347126;22;45257;-92
2022/06/14 09:10:05;;;;;;;;;4.00;3.33;;;;;25.00;70.27;101488.72;6350955;22;45285;-91
2022/06/14 09:12:39;;;;;;;;;3.00;2.67;;;;;25.20;70.01;101501.16;6345074;22;45305;-93
2022/06/14 09:15:35;;;;;;;;;5.33;5.00;;;;;25.40;70.28;101492.13;6345757;22;45312;-91
2022/06/14 09:18:11;;;;;;;;;3.00;3.00;;;;;25.63;69.61;101509.94;6317113;22;45409;-91
2022/06/14 09:21:16;;;;;;;;;4.33;2.00;;;;;25.76;68.94;101529.59;6317430;22;45149;-94
2022/06/14 09:24:20;;;;;;;;;4.33;3.33;;;;;25.88;68.33;101522.34;6279297;22;46722;-91
2022/06/14 09:27:01;;;;;;;;;3.00;3.00;;;;;25.93;68.63;101508.84;6249446;22;45681;-94
2022/06/14 09:30:04;;;;;;;;;3.00;3.00;;;;;26.23;68.23;101531.94;6247681;22;45247;-88
2022/06/14 09:33:13;;;;;;;;;3.00;2.67;;;;;26.42;67.72;101520.13;6278729;22;45219;-89
2022/06/14 09:35:43;;;;;;;;;3.67;3.33;;;;;26.67;67.21;101549.56;6247953;22;48252;-91
2022/06/14 09:38:36;;;;;;;;;4.00;4.00;;;;;26.75;67.24;101555.75;6271174;22;45470;-87
2022/06/14 09:41:13;;;;;;;;;4.00;3.00;;;;;26.87;67.07;101556.53;6248691;22;45503;-88
2022/06/14 09:44:00;;;;;;;;;3.00;3.00;;;;;27.07;67.20;101566.19;6275668;22;45418;-86
2022/06/14 09:46:57;;;;;;;;;3.00;3.00;;;;;27.28;67.19;101567.78;6252400;22;47404;-89
2022/06/14 09:49:34;;;;;;;;;2.00;2.00;;;;;27.51;66.93;101563.91;6249071;22;44795;-88
2022/06/14 09:52:44;;;;;;;;;3.67;3.00;;;;;27.81;66.34;101579.72;6275592;22;45306;-93
2022/06/14 09:55:30;;;;;;;;;5.67;4.00;;;;;28.67;67.03;101575.69;6300111;22;45755;-89
2022/06/14 09:58:27;;;;;;;;;5.67;4.67;;;;;30.53;66.73;101575.38;6278512;22;48207;-90
2022/06/14 10:01:18;;;;;;;;;3.33;3.33;;;;;32.95;65.29;101594.34;6283555;22;45236;-89
2022/06/14 10:04:02;;;;;;;;;4.00;3.00;;;;;34.85;63.89;101608.72;6282471;22;45385;-91
2022/06/14 10:06:48;;;;;;;;;2.33;2.33;;;;;36.75;61.15;101643.50;6311588;22;44847;-89
2022/06/14 10:09:24;;;;;;;;;2.00;2.00;;;;;38.48;59.22;101634.94;6284366;22;47021;-93
2022/06/14 10:11:58;;;;;;;;;3.67;3.00;;;;;40.09;58.03;101650.59;6310360;22;45301;-90
2022/06/14 10:14:57;;;;;;;;;3.00;3.00;;;;;41.95;55.16;101658.78;6315455;22;44651;-90
2022/06/14 10:17:44;;;;;;;;;4.67;4.00;;;;;43.52;52.25;101666.03;6280743;22;45502;-90
2022/06/14 10:20:31;;;;;;;;;6.00;2.67;;;;;44.61;49.21;101676.47;6281672;22;47127;-90
2022/06/14 10:23:05;;;;;;;;;3.67;2.67;;;;;45.65;47.88;101677.47;6314770;22;45325;-94
2022/06/14 10:28:54;;;;;;;;;4.00;2.67;;;;;47.56;44.05;101676.28;6329964;22;45312;-91
2022/06/14 10:31:42;;;;;;;;;2.33;1.67;;;;;48.04;42.84;101674.22;6348946;22;46307;-95
2022/06/14 10:34:23;;;;;;;;;3.00;3.00;;;;;48.67;42.18;101680.88;6348481;22;44683;-93
2022/06/14 10:37:03;;;;;;;;;4.50;3.00;;;;;49.25;40.65;101677.59;6318764;22;45311;-90
2022/06/14 10:40:01;;;;;;;;;4.00;4.00;;;;;49.61;39.09;101674.59;6318036;22;44928;-93
2022/06/14 10:42:52;;;;;;;;;3.33;3.33;;;;;49.97;38.92;101667.06;6321462;22;46998;-96
2022/06/14 10:45:17;;;;;;;;;2.33;2.33;;;;;50.39;38.98;101673.56;6354019;22;45112;-92
2022/06/14 10:47:58;;;;;;;;;1.00;1.00;;;;;50.63;36.54;101662.56;6317751;22;44701;-92
2022/06/14 10:50:47;;;;;;;;;4.00;3.00;;;;;51.15;36.73;101656.69;6317212;22;45527;-92
2022/06/14 10:53:41;;;;;;;;;4.00;3.00;;;;;52.00;35.93;101650.47;6338896;22;46638;-92
2022/06/14 10:56:20;;;;;;;;;4.67;4.33;;;;;52.80;36.10;101657.63;6343643;22;45869;-92
2022/06/14 10:59:23;;;;;;;;;4.00;3.33;;;;;53.49;35.09;101659.41;6341257;22;45557;-92
2022/06/14 11:02:04;;;;;;;;;5.00;4.00;;;;;54.13;34.25;101650.38;6340959;22;45258;-90
2022/06/14 11:04:37;;;;;;;;;4.33;3.67;;;;;54.57;33.34;101664.31;6342132;22;45413;-92
2022/06/14 11:07:14;;;;;;;;;3.00;3.00;;;;;54.93;32.90;101648.38;6341651;22;45296;-91
2022/06/14 11:10:12;;;;;;;;;3.67;3.00;;;;;54.65;31.68;101643.66;6344343;22;45313;-92
2022/06/14 11:12:56;;;;;;;;;6.00;3.00;;;;;54.68;32.07;101643.25;6317440;22;45245;-91
2022/06/14 11:15:32;;;;;;;;;3.33;2.67;;;;;55.23;31.80;101633.16;6346122;22;45217;-93
2022/06/14 11:18:36;;;;;;;;;3.33;3.33;;;;;55.99;30.64;101635.09;6317451;22;44775;-93
2022/06/14 11:21:13;;;;;;;;;3.00;3.00;;;;;56.53;30.02;101628.53;6339614;22;45202;-90
2022/06/14 11:24:16;;;;;;;;;3.00;3.00;;;;;57.08;29.53;101612.34;6315220;22;45391;-89
2022/06/14 11:27:19;;;;;;;;;3.00;3.00;;;;;57.59;28.31;101610.56;6313440;22;47308;-91
2022/06/14 11:30:13;;;;;;;;;3.00;3.00;;;;;57.68;28.90;101605.50;6342208;22;45248;-91
2022/06/14 11:32:41;;;;;;;;;4.00;3.00;;;;;57.57;27.23;101600.59;6336998;22;45253;-88
2022/06/14 11:35:30;;;;;;;;;3.67;2.67;;;;;57.45;28.27;101600.44;6336939;22;45313;-89
2022/06/14 11:38:17;;;;;;;;;4.00;3.00;;;;;56.69;27.86;101599.94;6339315;22;46254;-90
2022/06/14 11:40:52;;;;;;;;;3.67;3.67;;;;;56.12;27.16;101589.16;6309297;22;45326;-88
2022/06/14 11:43:18;;;;;;;;;4.00;4.00;;;;;55.85;27.94;101590.06;6332467;22;45304;-89
2022/06/14 11:46:01;;;;;;;;;4.00;3.00;;;;;56.09;27.40;101583.97;6338270;22;45245;-89
2022/06/14 11:48:49;;;;;;;;;4.67;3.00;;;;;56.54;27.33;101583.25;6309564;22;47381;-89
2022/06/14 11:51:27;;;;;;;;;2.00;2.00;;;;;56.75;26.87;101578.44;6335841;22;45342;-90
2022/06/14 11:54:06;;;;;;;;;3.00;3.00;;;;;56.41;27.14;101581.34;6333205;22;45284;-85
2022/06/14 11:56:38;;;;;;;;;3.00;2.00;;;;;56.28;27.14;101580.31;6304114;22;45462;-85
2022/06/14 11:59:47;;;;;;;;;2.33;2.33;;;;;56.14;26.80;101565.34;6333376;22;46027;-84
2022/06/14 12:02:19;;;;;;;;;4.00;3.33;;;;;56.20;27.35;101566.44;6331857;22;45412;-85
2022/06/14 12:04:47;;;;;;;;;3.00;2.67;;;;;56.11;26.74;101568.59;6332364;22;45420;-85
2022/06/14 12:07:28;;;;;;;;;3.00;3.00;;;;;56.42;26.51;101557.72;6304641;22;45269;-84
2022/06/14 12:10:32;;;;;;;;;3.00;3.00;;;;;56.78;26.47;101552.63;6333181;22;46608;-85
2022/06/14 12:13:07;;;;;;;;;3.00;3.00;;;;;56.81;26.30;101552.19;6321199;22;45334;-84
2022/06/14 12:15:58;;;;;;;;;1.00;1.00;;;;;56.72;25.84;101556.34;6311239;22;45290;-84
2022/06/14 12:18:29;;;;;;;;;3.00;3.00;;;;;56.28;25.86;101566.22;6335917;22;45467;-86
2022/06/14 12:21:10;;;;;;;;;2.67;2.67;;;;;55.80;26.30;101545.66;6333417;22;45360;-85
2022/06/14 12:23:42;;;;;;;;;3.00;3.00;;;;;55.41;25.94;101545.41;6330741;22;45481;-84
2022/06/14 12:28:58;;;;;;;;;2.00;2.00;;;;;55.44;25.65;101522.47;6303945;22;45335;-85
2022/06/14 12:31:39;;;;;;;;;1.67;1.67;;;;;56.04;26.31;101529.22;6301393;22;46246;-86
2022/06/14 12:34:26;;;;;;;;;2.67;2.33;;;;;56.72;26.07;101523.41;6299091;22;45258;-85
2022/06/14 12:37:13;;;;;;;;;3.00;3.00;;;;;57.69;25.80;101518.88;6302728;22;45381;-85
2022/06/14 12:39:46;;;;;;;;;5.33;3.67;;;;;58.25;25.19;101518.16;6299027;22;45313;-84